createdAt,value
2019-02-24T00:01:05.569Z,2.40
2019-02-24T00:03:33.107Z,2.30
2019-02-24T00:06:00.582Z,2.40
2019-02-24T00:08:28.630Z,2.40
2019-02-24T00:10:56.146Z,2.40
2019-02-24T00:13:26.966Z,2.40
2019-02-24T00:15:54.522Z,2.30
2019-02-24T00:18:21.993Z,2.30
2019-02-24T00:20:49.703Z,2.30
2019-02-24T00:23:17.313Z,2.30
2019-02-24T00:25:44.879Z,2.20
2019-02-24T00:28:12.456Z,2.20
2019-02-24T00:30:40.074Z,2.20
2019-02-24T00:33:07.670Z,2.10
2019-02-24T00:35:35.231Z,2.10
2019-02-24T00:38:02.938Z,2.10
2019-02-24T00:40:31.530Z,2.10
2019-02-24T00:42:59.185Z,2.10
2019-02-24T00:45:26.807Z,2.00
2019-02-24T00:47:56.403Z,2.00
2019-02-24T00:50:23.950Z,2.00
2019-02-24T00:52:52.025Z,2.00
2019-02-24T00:55:19.475Z,1.90
2019-02-24T00:57:46.967Z,1.80
2019-02-24T01:00:14.543Z,1.80
2019-02-24T01:02:43.582Z,1.80
2019-02-24T01:05:11.132Z,1.70
2019-02-24T01:07:38.722Z,1.70
2019-02-24T01:10:06.784Z,1.60
2019-02-24T01:12:34.338Z,1.60
2019-02-24T01:15:01.985Z,1.60
2019-02-24T01:17:29.616Z,1.60
2019-02-24T01:19:57.126Z,1.50
2019-02-24T01:22:24.584Z,1.50
2019-02-24T01:24:52.088Z,1.40
2019-02-24T01:27:19.512Z,1.40
2019-02-24T01:29:47.116Z,1.30
2019-02-24T01:32:14.519Z,1.30
2019-02-24T01:34:41.954Z,1.20
2019-02-24T01:37:09.464Z,1.20
2019-02-24T01:39:36.894Z,1.10
2019-02-24T01:42:04.529Z,1.10
2019-02-24T01:44:32.031Z,1.00
2019-02-24T01:46:59.499Z,1.00
2019-02-24T01:49:27.006Z,0.90
2019-02-24T01:51:54.420Z,0.90
2019-02-24T01:54:21.881Z,0.90
2019-02-24T01:56:49.368Z,0.80
2019-02-24T01:59:17.170Z,0.80
2019-02-24T02:01:45.622Z,0.80
2019-02-24T02:04:13.090Z,0.80
2019-02-24T02:06:40.546Z,0.70
2019-02-24T02:09:08.026Z,0.70
2019-02-24T02:11:36.253Z,0.70
2019-02-24T02:14:03.773Z,0.60
2019-02-24T02:16:31.420Z,0.60
2019-02-24T02:18:59.239Z,0.60
2019-02-24T02:21:26.790Z,0.50
2019-02-24T02:23:54.266Z,0.50
2019-02-24T02:26:22.946Z,0.50
2019-02-24T02:28:50.446Z,0.50
2019-02-24T02:31:17.926Z,0.40
2019-02-24T02:33:45.473Z,0.40
2019-02-24T02:36:12.993Z,0.40
2019-02-24T02:38:40.550Z,0.40
2019-02-24T02:41:08.078Z,0.40
2019-02-24T02:43:35.614Z,0.30
2019-02-24T02:46:03.219Z,0.30
2019-02-24T02:48:30.899Z,0.30
2019-02-24T02:50:58.354Z,0.30
2019-02-24T02:53:25.838Z,0.30
2019-02-24T02:55:53.370Z,0.20
2019-02-24T02:58:20.957Z,0.20
2019-02-24T03:00:48.399Z,0.20
2019-02-24T03:03:16.044Z,0.10
2019-02-24T03:05:53.692Z,0.10
2019-02-24T03:08:25.308Z,0.10
2019-02-24T03:10:52.883Z,0.00
2019-02-24T03:13:20.370Z,0.00
2019-02-24T03:15:48.074Z,0.00
2019-02-24T03:18:15.606Z,-0.10
2019-02-24T03:20:43.182Z,-0.10
2019-02-24T03:23:10.695Z,-0.10
2019-02-24T03:25:38.265Z,-0.10
2019-02-24T03:28:05.715Z,-0.10
2019-02-24T03:30:33.241Z,-0.20
2019-02-24T03:33:00.708Z,-0.20
2019-02-24T03:35:28.150Z,-0.20
2019-02-24T03:37:55.617Z,-0.20
2019-02-24T03:40:23.137Z,-0.20
2019-02-24T03:42:50.616Z,-0.30
2019-02-24T03:45:18.048Z,-0.30
2019-02-24T03:47:45.547Z,-0.30
2019-02-24T03:50:13.019Z,-0.30
2019-02-24T03:52:40.473Z,-0.40
2019-02-24T03:55:07.894Z,-0.40
2019-02-24T03:57:35.326Z,-0.40
2019-02-24T04:00:03.088Z,-0.40
2019-02-24T04:02:30.696Z,-0.40
2019-02-24T04:04:58.123Z,-0.50
2019-02-24T04:07:25.535Z,-0.50
2019-02-24T04:09:52.960Z,-0.50
2019-02-24T04:12:20.405Z,-0.50
2019-02-24T04:14:47.849Z,-0.50
2019-02-24T04:17:15.301Z,-0.50
2019-02-24T04:19:42.785Z,-0.60
2019-02-24T04:22:10.218Z,-0.60
2019-02-24T04:24:37.665Z,-0.60
2019-02-24T04:27:05.200Z,-0.60
2019-02-24T04:29:32.644Z,-0.70
2019-02-24T04:32:00.173Z,-0.70
2019-02-24T04:34:27.606Z,-0.70
2019-02-24T04:36:55.001Z,-0.70
2019-02-24T04:39:22.425Z,-0.70
2019-02-24T04:41:49.862Z,-0.70
2019-02-24T04:44:17.315Z,-0.70
2019-02-24T04:46:44.733Z,-0.80
2019-02-24T04:49:12.131Z,-0.80
2019-02-24T04:51:39.591Z,-0.80
2019-02-24T04:54:07.043Z,-0.80
2019-02-24T04:56:34.478Z,-0.80
2019-02-24T04:59:01.909Z,-0.80
2019-02-24T05:01:29.546Z,-0.80
2019-02-24T05:03:56.964Z,-0.80
2019-02-24T05:06:24.393Z,-0.80
2019-02-24T05:08:51.873Z,-0.80
2019-02-24T05:11:19.426Z,-0.80
2019-02-24T05:13:46.975Z,-0.80
2019-02-24T05:16:14.433Z,-0.90
2019-02-24T05:18:41.958Z,-0.90
2019-02-24T05:21:09.495Z,-0.90
2019-02-24T05:23:37.056Z,-0.90
2019-02-24T05:26:04.512Z,-1.00
2019-02-24T05:28:31.989Z,-1.00
2019-02-24T05:30:59.445Z,-1.00
2019-02-24T05:33:26.956Z,-1.00
2019-02-24T05:35:54.433Z,-1.00
2019-02-24T05:38:21.938Z,-1.00
2019-02-24T05:40:49.416Z,-1.00
2019-02-24T05:43:16.942Z,-1.00
2019-02-24T05:45:44.354Z,-1.10
2019-02-24T05:48:11.825Z,-1.10
2019-02-24T05:50:39.332Z,-1.10
2019-02-24T05:53:06.878Z,-1.10
2019-02-24T05:55:34.307Z,-1.10
2019-02-24T05:58:01.796Z,-1.10
2019-02-24T06:00:29.333Z,-1.20
2019-02-24T06:02:56.868Z,-1.20
2019-02-24T06:05:24.351Z,-1.20
2019-02-24T06:07:52.458Z,-1.20
2019-02-24T06:10:25.579Z,-1.20
2019-02-24T06:12:54.326Z,-1.20
2019-02-24T06:15:21.934Z,-1.20
2019-02-24T06:17:49.520Z,-1.30
2019-02-24T06:20:17.083Z,-1.30
2019-02-24T06:22:44.667Z,-1.20
2019-02-24T06:25:12.827Z,-1.20
2019-02-24T06:27:40.428Z,-1.20
2019-02-24T06:30:08.029Z,-1.20
2019-02-24T06:32:35.727Z,-1.20
2019-02-24T06:35:03.679Z,-1.20
2019-02-24T06:37:31.218Z,-1.20
2019-02-24T06:39:58.703Z,-1.20
2019-02-24T06:42:26.206Z,-1.10
2019-02-24T06:44:53.814Z,-0.80
2019-02-24T06:47:21.290Z,-0.40
2019-02-24T06:49:48.771Z,0.10
2019-02-24T06:52:18.066Z,0.70
2019-02-24T06:54:45.554Z,1.30
2019-02-24T06:57:13.065Z,2.00
2019-02-24T06:59:40.553Z,3.20
2019-02-24T07:02:07.982Z,4.20
2019-02-24T07:04:35.476Z,5.50
2019-02-24T07:07:02.902Z,7.10
2019-02-24T07:09:30.406Z,8.60
2019-02-24T07:11:57.856Z,9.50
2019-02-24T07:14:25.373Z,10.80
2019-02-24T07:16:53.015Z,11.70
2019-02-24T07:19:20.545Z,12.70
2019-02-24T07:21:48.161Z,13.70
2019-02-24T07:24:16.644Z,14.70
2019-02-24T07:26:44.205Z,15.90
2019-02-24T07:29:11.645Z,16.90
2019-02-24T07:31:39.158Z,17.80
2019-02-24T07:34:06.674Z,18.70
2019-02-24T07:36:34.212Z,19.40
2019-02-24T07:39:01.752Z,19.80
2019-02-24T07:41:31.117Z,20.10
2019-02-24T07:43:58.563Z,20.30
2019-02-24T07:46:26.017Z,20.40
2019-02-24T07:48:53.475Z,20.90
2019-02-24T07:51:21.127Z,21.30
2019-02-24T07:53:48.644Z,21.70
2019-02-24T07:56:16.046Z,21.60
2019-02-24T07:58:43.858Z,21.50
2019-02-24T08:01:11.952Z,21.90
2019-02-24T08:04:10.003Z,22.10
2019-02-24T08:06:38.725Z,22.50
2019-02-24T08:09:06.556Z,23.50
2019-02-24T08:11:34.060Z,24.00
2019-02-24T08:14:01.524Z,24.60
2019-02-24T08:16:28.949Z,25.20
2019-02-24T08:18:56.384Z,25.90
2019-02-24T08:21:23.846Z,26.50
2019-02-24T08:23:51.309Z,27.30
2019-02-24T08:26:18.851Z,28.20
2019-02-24T08:28:46.278Z,29.20
2019-02-24T08:31:13.701Z,30.20
2019-02-24T08:33:41.184Z,30.90
2019-02-24T08:36:08.581Z,31.50
2019-02-24T08:38:36.023Z,32.10
2019-02-24T08:41:03.495Z,32.80
2019-02-24T08:43:30.909Z,33.10
2019-02-24T08:45:58.342Z,33.50
2019-02-24T08:48:25.809Z,33.70
2019-02-24T08:50:53.220Z,34.20
2019-02-24T08:53:20.657Z,34.50
2019-02-24T08:55:48.102Z,34.40
2019-02-24T08:58:15.592Z,34.20
2019-02-24T09:00:50.739Z,34.60
2019-02-24T09:03:12.324Z,34.60
2019-02-24T09:05:40.600Z,34.80
2019-02-24T09:08:11.275Z,34.10
2019-02-24T09:10:39.713Z,33.70
2019-02-24T09:13:07.159Z,34.10
2019-02-24T09:15:34.665Z,35.10
2019-02-24T09:18:02.069Z,35.70
2019-02-24T09:20:29.539Z,36.10
2019-02-24T09:22:57.053Z,36.40
2019-02-24T09:25:24.559Z,36.80
2019-02-24T09:27:52.005Z,37.10
2019-02-24T09:30:19.405Z,37.80
2019-02-24T09:32:47.038Z,38.10
2019-02-24T09:35:14.514Z,38.30
2019-02-24T09:37:41.987Z,38.60
2019-02-24T09:40:12.014Z,38.10
2019-02-24T09:42:43.149Z,37.80
2019-02-24T09:45:10.592Z,35.50
2019-02-24T09:47:46.285Z,33.70
2019-02-24T09:50:07.409Z,33.20
2019-02-24T09:52:35.023Z,32.60
2019-02-24T09:55:02.636Z,30.30
2019-02-24T09:57:30.381Z,28.80
2019-02-24T09:59:58.008Z,28.70
2019-02-24T10:02:25.816Z,28.90
2019-02-24T10:04:53.441Z,28.90
2019-02-24T10:07:21.896Z,28.80
2019-02-24T10:09:49.383Z,29.50
2019-02-24T10:12:16.908Z,30.60
2019-02-24T10:14:44.391Z,32.50
2019-02-24T10:17:12.647Z,34.10
2019-02-24T10:19:40.125Z,35.00
2019-02-24T10:22:07.646Z,36.30
2019-02-24T10:24:35.154Z,36.80
2019-02-24T10:27:02.666Z,37.20
2019-02-24T10:29:30.183Z,37.80
2019-02-24T10:31:57.638Z,38.60
2019-02-24T10:34:25.148Z,39.10
2019-02-24T10:36:52.725Z,40.00
2019-02-24T10:39:29.360Z,40.40
2019-02-24T10:41:49.650Z,40.50
2019-02-24T10:44:17.181Z,41.00
2019-02-24T10:46:44.647Z,41.30
2019-02-24T10:49:12.221Z,41.40
2019-02-24T10:51:39.704Z,41.20
2019-02-24T10:54:07.261Z,41.20
2019-02-24T10:56:34.717Z,41.50
2019-02-24T10:59:03.226Z,41.70
2019-02-24T11:01:30.685Z,41.70
2019-02-24T11:03:58.135Z,41.80
2019-02-24T11:06:25.633Z,42.00
2019-02-24T11:08:53.133Z,42.40
2019-02-24T11:11:20.608Z,42.50
2019-02-24T11:13:48.153Z,42.30
2019-02-24T11:16:15.708Z,42.20
2019-02-24T11:18:43.146Z,42.40
2019-02-24T11:21:10.799Z,42.70
2019-02-24T11:23:38.290Z,42.70
2019-02-24T11:26:05.785Z,43.00
2019-02-24T11:28:33.321Z,43.20
2019-02-24T11:31:00.787Z,43.20
2019-02-24T11:33:28.230Z,43.30
2019-02-24T11:35:55.676Z,43.50
2019-02-24T11:38:23.225Z,43.70
2019-02-24T11:40:51.886Z,43.70
2019-02-24T11:43:19.329Z,43.50
2019-02-24T11:45:46.787Z,43.50
2019-02-24T11:48:14.326Z,43.30
2019-02-24T11:50:41.814Z,43.40
2019-02-24T11:53:09.252Z,43.40
2019-02-24T11:55:36.689Z,43.50
2019-02-24T11:58:04.134Z,43.30
2019-02-24T12:00:31.616Z,42.60
2019-02-24T12:02:59.058Z,42.30
2019-02-24T12:05:26.481Z,42.30
2019-02-24T12:07:53.943Z,42.30
2019-02-24T12:10:21.354Z,42.20
2019-02-24T12:12:50.176Z,42.30
2019-02-24T12:15:17.589Z,42.30
2019-02-24T12:17:45.152Z,42.50
2019-02-24T12:20:12.739Z,42.70
2019-02-24T12:22:40.148Z,42.40
2019-02-24T12:25:07.609Z,42.10
2019-02-24T12:27:35.094Z,41.90
2019-02-24T12:30:02.662Z,41.40
2019-02-24T12:32:30.520Z,41.40
2019-02-24T12:34:57.924Z,41.20
2019-02-24T12:37:25.340Z,41.20
2019-02-24T12:39:52.787Z,41.40
2019-02-24T12:42:20.208Z,41.30
2019-02-24T12:44:48.749Z,41.20
2019-02-24T12:47:16.175Z,40.70
2019-02-24T12:49:43.613Z,40.50
2019-02-24T12:52:11.007Z,40.20
2019-02-24T12:54:38.447Z,39.90
2019-02-24T12:57:05.848Z,39.10
2019-02-24T12:59:33.260Z,38.90
2019-02-24T13:02:05.611Z,38.70
2019-02-24T13:04:30.034Z,38.10
2019-02-24T13:06:57.742Z,37.70
2019-02-24T13:09:25.269Z,37.40
2019-02-24T13:11:57.230Z,37.00
2019-02-24T13:14:26.412Z,36.60
2019-02-24T13:16:54.097Z,36.30
2019-02-24T13:19:22.590Z,35.60
2019-02-24T13:21:50.093Z,35.40
2019-02-24T13:24:17.526Z,35.40
2019-02-24T13:26:44.993Z,35.10
2019-02-24T13:29:12.443Z,35.00
2019-02-24T13:31:39.902Z,34.90
2019-02-24T13:34:07.312Z,34.30
2019-02-24T13:36:34.785Z,34.40
2019-02-24T13:39:02.207Z,34.20
2019-02-24T13:41:31.612Z,34.10
2019-02-24T13:43:59.050Z,34.30
2019-02-24T13:46:26.535Z,34.00
2019-02-24T13:48:53.986Z,34.10
2019-02-24T13:51:21.424Z,34.20
2019-02-24T13:53:48.914Z,34.20
2019-02-24T13:56:16.350Z,34.00
2019-02-24T13:58:43.740Z,33.40
2019-02-24T14:01:11.272Z,33.20
2019-02-24T14:03:39.030Z,32.90
2019-02-24T14:06:06.481Z,33.00
2019-02-24T14:08:33.913Z,33.10
2019-02-24T14:11:01.355Z,32.80
2019-02-24T14:13:28.797Z,32.00
2019-02-24T14:15:56.269Z,31.40
2019-02-24T14:18:25.244Z,30.70
2019-02-24T14:20:52.657Z,30.30
2019-02-24T14:23:20.422Z,29.70
2019-02-24T14:25:48.004Z,29.20
2019-02-24T14:28:15.546Z,28.80
2019-02-24T14:30:43.060Z,28.30
2019-02-24T14:33:10.517Z,28.10
2019-02-24T14:35:37.951Z,27.60
2019-02-24T14:38:05.442Z,27.20
2019-02-24T14:40:32.975Z,27.30
2019-02-24T14:43:00.410Z,27.30
2019-02-24T14:45:27.880Z,27.00
2019-02-24T14:47:55.452Z,26.80
2019-02-24T14:50:22.926Z,27.10
2019-02-24T14:52:50.532Z,27.20
2019-02-24T14:55:18.034Z,27.00
2019-02-24T14:57:45.553Z,27.10
2019-02-24T15:00:13.706Z,27.10
2019-02-24T15:02:42.696Z,27.20
2019-02-24T15:05:10.692Z,27.00
2019-02-24T15:07:38.122Z,26.50
2019-02-24T15:10:07.239Z,26.30
2019-02-24T15:12:34.711Z,25.90
2019-02-24T15:15:02.225Z,25.70
2019-02-24T15:17:29.793Z,25.40
2019-02-24T15:19:57.333Z,25.00
2019-02-24T15:22:24.761Z,24.90
2019-02-24T15:24:52.245Z,24.50
2019-02-24T15:27:19.815Z,24.60
2019-02-24T15:29:47.372Z,24.60
2019-02-24T15:32:14.800Z,24.50
2019-02-24T15:34:42.315Z,24.40
2019-02-24T15:37:09.772Z,24.40
2019-02-24T15:39:37.253Z,24.30
2019-02-24T15:42:04.703Z,24.30
2019-02-24T15:44:32.173Z,24.10
2019-02-24T15:46:59.618Z,23.70
2019-02-24T15:49:27.166Z,23.30
2019-02-24T15:51:54.624Z,23.00
2019-02-24T15:54:22.042Z,22.80
2019-02-24T15:56:49.496Z,22.60
2019-02-24T15:59:16.937Z,22.00
2019-02-24T16:01:44.383Z,21.40
2019-02-24T16:04:11.845Z,20.70
2019-02-24T16:06:39.345Z,19.90
2019-02-24T16:09:07.477Z,19.30
2019-02-24T16:11:35.754Z,18.60
2019-02-24T16:14:03.535Z,18.10
2019-02-24T16:16:31.053Z,17.50
2019-02-24T16:18:58.549Z,17.00
2019-02-24T16:21:26.016Z,16.50
2019-02-24T16:23:53.441Z,16.00
2019-02-24T16:26:20.920Z,15.50
2019-02-24T16:28:48.321Z,15.10
2019-02-24T16:31:15.844Z,14.60
2019-02-24T16:33:43.357Z,14.30
2019-02-24T16:36:10.851Z,14.20
2019-02-24T16:38:38.289Z,13.90
2019-02-24T16:41:05.746Z,13.70
2019-02-24T16:43:33.398Z,13.50
2019-02-24T16:46:00.798Z,13.40
2019-02-24T16:48:28.294Z,13.30
2019-02-24T16:50:56.697Z,13.20
2019-02-24T16:53:24.146Z,13.00
2019-02-24T16:55:51.593Z,12.90
2019-02-24T16:58:19.031Z,12.70
2019-02-24T17:00:46.606Z,12.50
2019-02-24T17:03:19.811Z,12.40
2019-02-24T17:05:43.552Z,12.30
2019-02-24T17:08:11.089Z,12.20
2019-02-24T17:10:38.547Z,12.10
2019-02-24T17:13:06.081Z,12.00
2019-02-24T17:15:33.555Z,12.00
2019-02-24T17:18:01.088Z,11.80
2019-02-24T17:20:28.631Z,11.70
2019-02-24T17:22:56.132Z,11.50
2019-02-24T17:25:23.678Z,11.30
2019-02-24T17:27:51.102Z,11.10
2019-02-24T17:30:18.648Z,11.00
2019-02-24T17:32:46.097Z,10.90
2019-02-24T17:35:13.662Z,10.90
2019-02-24T17:37:41.220Z,10.80
2019-02-24T17:40:09.734Z,10.80
2019-02-24T17:42:37.160Z,10.70
2019-02-24T17:45:05.593Z,10.60
2019-02-24T17:47:34.042Z,10.60
2019-02-24T17:50:01.467Z,10.40
2019-02-24T17:52:28.937Z,10.30
2019-02-24T17:54:56.433Z,10.20
2019-02-24T17:57:23.890Z,10.20
2019-02-24T17:59:51.348Z,10.20
2019-02-24T18:02:18.797Z,10.10
2019-02-24T18:04:46.258Z,10.00
2019-02-24T18:07:13.848Z,9.90
2019-02-24T18:09:41.287Z,9.80
2019-02-24T18:12:08.785Z,9.70
2019-02-24T18:14:36.199Z,9.60
2019-02-24T18:17:03.676Z,9.50
2019-02-24T18:19:31.090Z,9.30
2019-02-24T18:21:58.556Z,9.20
2019-02-24T18:24:26.055Z,9.20
2019-02-24T18:26:53.785Z,9.10
2019-02-24T18:29:21.317Z,9.10
2019-02-24T18:31:48.837Z,9.10
2019-02-24T18:34:16.345Z,9.00
2019-02-24T18:36:43.843Z,9.00
2019-02-24T18:39:11.288Z,9.00
2019-02-24T18:41:39.007Z,8.90
2019-02-24T18:44:06.465Z,8.90
2019-02-24T18:46:33.941Z,8.80
2019-02-24T18:49:01.424Z,8.80
2019-02-24T18:51:28.869Z,8.70
2019-02-24T18:53:56.326Z,8.60
2019-02-24T18:56:23.738Z,8.60
2019-02-24T18:58:51.186Z,8.50
2019-02-24T19:01:18.633Z,8.40
2019-02-24T19:03:46.234Z,8.30
2019-02-24T19:06:13.647Z,8.20
2019-02-24T19:08:41.141Z,8.20
2019-02-24T19:11:08.583Z,8.10
2019-02-24T19:13:36.043Z,8.00
2019-02-24T19:16:03.497Z,7.90
2019-02-24T19:18:30.992Z,7.90
2019-02-24T19:20:58.711Z,7.80
2019-02-24T19:23:26.221Z,7.70
2019-02-24T19:25:53.828Z,7.60
2019-02-24T19:28:21.341Z,7.50
2019-02-24T19:30:50.378Z,7.40
2019-02-24T19:33:17.987Z,7.30
2019-02-24T19:35:45.493Z,7.20
2019-02-24T19:38:13.137Z,7.10
2019-02-24T19:40:40.596Z,6.90
2019-02-24T19:43:08.103Z,6.80
2019-02-24T19:45:35.685Z,6.70
2019-02-24T19:48:03.214Z,6.60
2019-02-24T19:50:30.761Z,6.50
2019-02-24T19:52:58.442Z,6.40
2019-02-24T19:55:26.015Z,6.30
2019-02-24T19:57:53.525Z,6.30
2019-02-24T20:00:21.188Z,6.20
2019-02-24T20:02:48.750Z,6.20
2019-02-24T20:05:16.336Z,6.20
2019-02-24T20:07:43.875Z,6.10
2019-02-24T20:10:15.330Z,6.00
2019-02-24T20:12:42.644Z,6.00
2019-02-24T20:15:11.375Z,6.00
2019-02-24T20:17:39.038Z,6.00
2019-02-24T20:20:07.247Z,5.90
2019-02-24T20:22:34.767Z,5.90
2019-02-24T20:25:02.391Z,5.90
2019-02-24T20:27:29.981Z,5.80
2019-02-24T20:29:57.443Z,5.80
2019-02-24T20:32:24.996Z,5.70
2019-02-24T20:34:52.465Z,5.70
2019-02-24T20:37:19.972Z,5.60
2019-02-24T20:39:47.542Z,5.50
2019-02-24T20:42:15.004Z,5.40
2019-02-24T20:44:42.615Z,5.40
2019-02-24T20:47:10.107Z,5.30
2019-02-24T20:49:37.527Z,5.20
2019-02-24T20:52:04.982Z,5.20
2019-02-24T20:54:32.434Z,5.10
2019-02-24T20:56:59.920Z,5.00
2019-02-24T20:59:27.478Z,5.00
2019-02-24T21:01:55.071Z,4.90
2019-02-24T21:04:22.546Z,4.90
2019-02-24T21:06:49.987Z,4.80
2019-02-24T21:09:17.443Z,4.80
2019-02-24T21:11:44.965Z,4.70
2019-02-24T21:14:12.428Z,4.70
2019-02-24T21:16:39.950Z,4.60
2019-02-24T21:19:07.485Z,4.50
2019-02-24T21:21:34.922Z,4.50
2019-02-24T21:24:03.571Z,4.40
2019-02-24T21:26:31.222Z,4.30
2019-02-24T21:28:58.771Z,4.20
2019-02-24T21:31:26.492Z,4.20
2019-02-24T21:33:54.194Z,4.10
2019-02-24T21:36:21.828Z,4.00
2019-02-24T21:38:49.808Z,4.00
2019-02-24T21:41:17.375Z,3.90
2019-02-24T21:43:44.826Z,3.90
2019-02-24T21:46:12.373Z,3.90
2019-02-24T21:48:40.037Z,3.80
2019-02-24T21:51:07.569Z,3.70
2019-02-24T21:53:35.292Z,3.70
2019-02-24T21:56:03.027Z,3.60
2019-02-24T21:58:30.677Z,3.60
2019-02-24T22:00:58.149Z,3.50
2019-02-24T22:03:25.681Z,3.50
2019-02-24T22:05:53.144Z,3.50
2019-02-24T22:08:20.753Z,3.50
2019-02-24T22:10:48.370Z,3.40
2019-02-24T22:13:15.924Z,3.40
2019-02-24T22:15:43.723Z,3.40
2019-02-24T22:18:11.174Z,3.30
2019-02-24T22:20:38.959Z,3.30
2019-02-24T22:23:06.808Z,3.20
2019-02-24T22:25:34.700Z,3.20
2019-02-24T22:28:02.289Z,3.10
2019-02-24T22:30:30.067Z,3.10
2019-02-24T22:32:57.585Z,3.00
2019-02-24T22:35:25.126Z,3.00
2019-02-24T22:37:52.578Z,2.90
2019-02-24T22:40:20.042Z,2.90
2019-02-24T22:42:47.778Z,2.90
2019-02-24T22:45:16.843Z,2.80
2019-02-24T22:47:44.739Z,2.80
2019-02-24T22:50:12.483Z,2.80
2019-02-24T22:52:40.088Z,2.70
2019-02-24T22:55:07.517Z,2.70
2019-02-24T22:57:35.076Z,2.70
2019-02-24T23:00:05.199Z,2.70
2019-02-24T23:02:34.674Z,2.60
2019-02-24T23:05:02.408Z,2.60
2019-02-24T23:07:30.068Z,2.60
2019-02-24T23:09:57.617Z,2.50
2019-02-24T23:12:25.077Z,2.50
2019-02-24T23:14:53.021Z,2.40
2019-02-24T23:17:20.651Z,2.40
2019-02-24T23:19:48.129Z,2.30
2019-02-24T23:22:15.585Z,2.30
2019-02-24T23:24:43.125Z,2.30
2019-02-24T23:27:10.598Z,2.30
2019-02-24T23:29:38.140Z,2.30
2019-02-24T23:32:05.590Z,2.30
2019-02-24T23:34:33.033Z,2.30
2019-02-24T23:37:00.504Z,2.30
2019-02-24T23:39:28.136Z,2.30
2019-02-24T23:41:55.570Z,2.20
2019-02-24T23:44:23.010Z,2.20
2019-02-24T23:46:50.437Z,2.20
2019-02-24T23:49:17.858Z,2.20
2019-02-24T23:51:45.268Z,2.20
2019-02-24T23:54:12.724Z,2.20
2019-02-24T23:56:40.162Z,2.20
2019-02-24T23:59:07.635Z,2.10
